Disclaimer

Please do not use the information listed here in-flight or in-navigation, as they are not provided to us by the airports but are provided by volunteers, so they might be outdated.

Search


Regions


Airport information page

Radio informations:
Tower (TWR) - 133.2 MHz
SFA - SEEREMAR MHz
LANGEN RADAR - 129.675 MHz
DISPATCH - 369.125 MHz
WING COMD POST - 372.675 MHz
PMSV METRO - 284.425 MHz
AMC AIRLIFT AMCC - 131.975 MHz
Ground (GND) - 121.775 MHz

Airport informations:
Latitude: 49° 26' 12.88" N
Longitude: 007° 36' 01.02" E
Elevation: 776 feet - 237 meters
Operating hours: 24 hour operations
Operating agency: US Air Force
Timezone: UTC+1(+2DT) - Last Sunday in March to last Sunday in October
Fuel: JP-8, SemiKeroscene MIL Spec T-83133, without icing inhibitor

Runway information:
08/26 - 10498 x 148 feet< - >3200 x 45 meters
09/27 - 9278 x 148 feet< - >2828 x 45 meters

Recent METARs:
ETAR 180756Z 07005KT 9999 CLR M01/M01 A3029 RMK AO2A SLP274 $
ETAR 180856Z 05006KT 9999 CLR 03/M03 A3028 RMK AO2A SLP269 T0025 58002 $
ETAR 180856Z 05006KT 9999 CLR 03/M03 A3028 RMK AO2A SLP269 T0025 58002 $

Airport on the map: